createdAt,value
2022-11-05T00:03:04.846Z,8.88
2022-11-05T00:08:27.001Z,8.94
2022-11-05T00:13:49.364Z,8.99
2022-11-05T00:19:08.248Z,8.98
2022-11-05T00:24:30.918Z,9.01
2022-11-05T00:29:34.821Z,8.96
2022-11-05T00:34:38.137Z,8.89
2022-11-05T00:39:41.659Z,8.79
2022-11-05T00:45:03.519Z,8.67
2022-11-05T00:50:07.882Z,8.59
2022-11-05T00:55:11.351Z,8.53
2022-11-05T01:00:15.960Z,8.50
2022-11-05T01:05:20.102Z,8.47
2022-11-05T01:10:23.951Z,8.47
2022-11-05T01:15:27.466Z,8.44
2022-11-05T01:20:31.648Z,8.46
2022-11-05T01:25:35.211Z,8.49
2022-11-05T01:30:39.649Z,8.47
2022-11-05T01:35:42.971Z,8.45
2022-11-05T01:40:46.813Z,8.43
2022-11-05T01:45:55.120Z,8.46
2022-11-05T01:51:12.971Z,8.49
2022-11-05T01:56:42.697Z,8.50
2022-11-05T02:01:46.798Z,8.51
2022-11-05T02:06:50.760Z,8.48
2022-11-05T02:11:54.271Z,8.48
2022-11-05T02:17:05.161Z,8.49
2022-11-05T02:22:27.177Z,8.49
2022-11-05T02:27:47.742Z,8.52
2022-11-05T02:33:10.282Z,8.58
2022-11-05T02:38:36.615Z,8.61
2022-11-05T02:44:06.214Z,8.59
2022-11-05T02:49:36.621Z,8.58
2022-11-05T02:54:50.069Z,8.53
2022-11-05T03:00:54.416Z,8.51
2022-11-05T03:06:27.728Z,8.49
2022-11-05T03:11:40.870Z,8.50
2022-11-05T03:16:57.593Z,8.51
2022-11-05T03:22:07.047Z,8.45
2022-11-05T03:27:16.707Z,8.47
2022-11-05T03:32:22.721Z,8.47
2022-11-05T03:37:32.137Z,8.43
2022-11-05T03:42:40.053Z,8.42
2022-11-05T03:47:47.888Z,8.34
2022-11-05T03:53:04.860Z,8.36
2022-11-05T03:58:09.639Z,8.41
2022-11-05T04:03:13.262Z,8.42
2022-11-05T04:08:35.629Z,8.41
2022-11-05T04:13:39.134Z,8.40
2022-11-05T04:18:43.906Z,8.37
2022-11-05T04:24:05.979Z,8.33
2022-11-05T04:29:28.913Z,8.33
2022-11-05T04:34:32.431Z,8.31
2022-11-05T04:39:35.943Z,8.33
2022-11-05T04:44:39.563Z,8.31
2022-11-05T04:49:43.082Z,8.27
2022-11-05T04:54:46.600Z,8.25
2022-11-05T04:59:52.258Z,8.31
2022-11-05T05:04:55.773Z,8.30
2022-11-05T05:09:59.191Z,8.32
2022-11-05T05:15:03.935Z,8.36
2022-11-05T05:20:27.214Z,8.35
2022-11-05T05:25:31.755Z,8.35
2022-11-05T05:30:35.171Z,8.39
2022-11-05T05:35:38.685Z,8.44
2022-11-05T05:40:42.094Z,8.49
2022-11-05T05:45:45.437Z,8.55
2022-11-05T05:50:48.930Z,8.56
2022-11-05T05:55:55.297Z,8.60
2022-11-05T06:01:12.934Z,8.64
2022-11-05T06:06:20.273Z,8.68
2022-11-05T06:11:25.241Z,8.73
2022-11-05T06:16:28.945Z,8.74
2022-11-05T06:21:33.182Z,8.77
2022-11-05T06:26:42.947Z,8.82
2022-11-05T06:31:46.655Z,8.86
2022-11-05T06:36:50.170Z,8.90
2022-11-05T06:47:17.174Z,8.91
2022-11-05T06:52:21.426Z,8.94
2022-11-05T06:57:24.902Z,8.98
2022-11-05T07:02:28.582Z,9.01
2022-11-05T07:07:31.980Z,9.06
2022-11-05T07:12:35.685Z,9.10
2022-11-05T07:17:40.488Z,9.14
2022-11-05T07:22:43.932Z,9.15
2022-11-05T07:27:47.380Z,9.16
2022-11-05T07:32:50.864Z,9.17
2022-11-05T07:37:55.998Z,9.22
2022-11-05T07:43:01.995Z,9.22
2022-11-05T07:48:06.340Z,9.18
2022-11-05T07:53:15.335Z,9.15
2022-11-05T07:58:19.485Z,9.10
2022-11-05T08:03:23.439Z,9.09
2022-11-05T08:08:27.011Z,9.11
2022-11-05T08:13:30.663Z,9.17
2022-11-05T08:18:34.391Z,9.16
2022-11-05T08:23:39.252Z,9.21
2022-11-05T08:28:42.657Z,9.23
2022-11-05T08:33:46.164Z,9.22
2022-11-05T08:38:49.699Z,9.25
2022-11-05T08:43:56.581Z,9.27
2022-11-05T08:48:59.997Z,9.32
2022-11-05T08:54:05.198Z,9.33
2022-11-05T08:59:08.900Z,9.34
2022-11-05T09:04:12.592Z,9.38
2022-11-05T09:09:15.963Z,9.44
2022-11-05T09:14:19.518Z,9.53
2022-11-05T09:19:22.930Z,9.53
2022-11-05T09:24:26.416Z,9.55
2022-11-05T09:29:29.861Z,9.51
2022-11-05T09:34:34.086Z,9.56
2022-11-05T09:39:37.504Z,9.61
2022-11-05T09:44:51.372Z,9.65
2022-11-05T09:49:58.571Z,9.69
2022-11-05T09:55:07.947Z,9.74
2022-11-05T10:00:17.169Z,9.79
2022-11-05T10:05:23.641Z,9.88
2022-11-05T10:10:43.761Z,10.01
2022-11-05T10:16:45.547Z,10.12
2022-11-05T10:22:06.117Z,10.19
2022-11-05T10:27:28.832Z,10.14
2022-11-05T10:32:41.272Z,10.23
2022-11-05T10:37:48.772Z,10.30
2022-11-05T10:43:15.135Z,10.37
2022-11-05T10:48:45.159Z,10.44
2022-11-05T10:54:06.680Z,10.46
2022-11-05T10:59:27.823Z,10.46
2022-11-05T11:04:37.529Z,10.55
2022-11-05T11:09:49.987Z,10.56
2022-11-05T11:15:27.641Z,10.58
2022-11-05T11:20:32.958Z,10.63
2022-11-05T11:26:10.395Z,10.76
2022-11-05T11:31:23.109Z,10.93
2022-11-05T11:36:38.240Z,10.92
2022-11-05T11:41:45.183Z,10.94
2022-11-05T11:46:52.764Z,10.96
2022-11-05T11:52:05.053Z,11.01
2022-11-05T11:57:26.395Z,11.07
2022-11-05T12:03:11.014Z,11.11
2022-11-05T12:09:12.852Z,11.13
2022-11-05T12:14:46.102Z,11.22
2022-11-05T12:20:17.147Z,11.21
2022-11-05T12:25:28.028Z,11.18
2022-11-05T12:31:22.639Z,11.13
2022-11-05T12:36:41.485Z,11.13
2022-11-05T12:42:14.992Z,11.17
2022-11-05T12:47:49.455Z,11.14
2022-11-05T12:53:11.137Z,11.10
2022-11-05T12:58:35.128Z,11.02
2022-11-05T13:03:50.504Z,10.98
2022-11-05T13:09:16.846Z,10.92
2022-11-05T13:14:37.054Z,10.88
2022-11-05T13:20:08.916Z,10.86
2022-11-05T13:25:28.119Z,10.84
2022-11-05T13:30:41.841Z,10.80
2022-11-05T13:36:23.894Z,10.83
2022-11-05T13:42:13.286Z,10.84
2022-11-05T13:47:57.630Z,10.82
2022-11-05T13:53:50.218Z,10.85
2022-11-05T13:59:19.962Z,10.80
2022-11-05T14:04:31.945Z,10.80
2022-11-05T14:09:38.538Z,10.77
2022-11-05T14:14:54.489Z,10.78
2022-11-05T14:20:06.921Z,10.75
2022-11-05T14:25:19.526Z,10.70
2022-11-05T14:30:47.014Z,10.67
2022-11-05T14:35:51.790Z,10.62
2022-11-05T14:41:03.474Z,10.57
2022-11-05T14:46:07.756Z,10.52
2022-11-05T14:51:37.378Z,10.49
2022-11-05T14:56:53.307Z,10.47
2022-11-05T15:02:13.692Z,10.44
2022-11-05T15:07:35.484Z,10.40
2022-11-05T15:12:49.147Z,10.36
2022-11-05T15:18:06.823Z,10.38
2022-11-05T15:23:17.477Z,10.38
2022-11-05T15:28:43.716Z,10.42
2022-11-05T15:33:48.666Z,10.41
2022-11-05T15:39:15.534Z,10.41
2022-11-05T15:44:35.191Z,10.42
2022-11-05T15:49:39.070Z,10.43
2022-11-05T15:54:43.696Z,10.43
2022-11-05T15:59:48.333Z,10.38
2022-11-05T16:04:52.568Z,10.38
2022-11-05T16:10:02.153Z,10.38
2022-11-05T16:15:08.715Z,10.34
2022-11-05T16:20:22.624Z,10.31
2022-11-05T16:25:44.375Z,10.27
2022-11-05T16:31:05.976Z,10.29
2022-11-05T16:36:09.882Z,10.26
2022-11-05T16:41:16.733Z,10.24
2022-11-05T16:46:21.528Z,10.24
2022-11-05T16:51:28.531Z,10.29
2022-11-05T16:56:32.865Z,10.32
2022-11-05T17:01:41.102Z,10.29
2022-11-05T17:06:46.955Z,10.21
2022-11-05T17:11:50.389Z,10.12
2022-11-05T17:16:54.113Z,10.08
2022-11-05T17:21:57.690Z,10.07
2022-11-05T17:27:01.140Z,10.07
2022-11-05T17:32:06.783Z,10.11
2022-11-05T17:45:19.591Z,10.23
2022-11-05T17:50:23.129Z,10.22
2022-11-05T17:55:26.770Z,10.20
2022-11-05T18:00:30.642Z,10.18
2022-11-05T18:05:35.280Z,10.15
2022-11-05T18:10:40.877Z,10.12
2022-11-05T18:15:44.976Z,10.09
2022-11-05T18:20:48.389Z,10.05
2022-11-05T18:25:52.008Z,10.03
2022-11-05T18:30:55.484Z,9.97
2022-11-05T18:35:59.245Z,10.01
2022-11-05T18:41:07.125Z,10.03
2022-11-05T18:46:29.355Z,9.99
2022-11-05T18:51:34.977Z,9.89
2022-11-05T18:56:44.950Z,9.82
2022-11-05T19:01:48.975Z,9.80
2022-11-05T19:06:53.013Z,9.76
2022-11-05T19:11:57.422Z,9.72
2022-11-05T19:17:02.185Z,9.71
2022-11-05T19:22:05.723Z,9.72
2022-11-05T19:27:09.235Z,9.70
2022-11-05T19:32:12.637Z,9.67
2022-11-05T19:37:16.410Z,9.67
2022-11-05T19:42:19.986Z,9.64
2022-11-05T19:47:23.409Z,9.59
2022-11-05T19:52:26.814Z,9.55
2022-11-05T19:57:30.325Z,9.52
2022-11-05T20:02:34.222Z,9.51
2022-11-05T20:07:38.189Z,9.53
2022-11-05T20:12:41.588Z,9.53
2022-11-05T20:17:50.559Z,9.55
2022-11-05T20:22:54.058Z,9.55
2022-11-05T20:27:57.931Z,9.51
2022-11-05T20:33:01.489Z,9.48
2022-11-05T20:38:05.763Z,9.46
2022-11-05T20:43:09.244Z,9.46
2022-11-05T20:48:14.021Z,9.38
2022-11-05T20:53:17.950Z,9.36
2022-11-05T20:58:21.630Z,9.39
2022-11-05T21:03:25.247Z,9.43
2022-11-05T21:08:29.569Z,9.47
2022-11-05T21:13:33.869Z,9.44
2022-11-05T21:18:40.615Z,9.39
2022-11-05T21:23:44.130Z,9.35
2022-11-05T21:28:47.951Z,9.34
2022-11-05T21:33:55.148Z,9.26
2022-11-05T21:38:59.401Z,9.13
2022-11-05T21:44:04.542Z,9.01
2022-11-05T21:49:08.185Z,8.85
2022-11-05T21:54:41.098Z,8.75
2022-11-05T21:59:55.414Z,8.75
2022-11-05T22:05:00.408Z,8.74
2022-11-05T22:10:16.034Z,8.72
2022-11-05T22:15:20.018Z,8.62
2022-11-05T22:20:23.864Z,8.56
2022-11-05T22:25:27.351Z,8.53
2022-11-05T22:30:35.639Z,8.49
2022-11-05T22:35:40.122Z,8.36
2022-11-05T22:40:43.557Z,8.28
2022-11-05T22:45:46.996Z,8.08
2022-11-05T22:50:50.773Z,7.92
2022-11-05T22:55:54.196Z,7.82
2022-11-05T23:00:58.800Z,7.76
2022-11-05T23:06:05.417Z,7.76
2022-11-05T23:11:38.802Z,7.73
2022-11-05T23:17:02.848Z,7.68
2022-11-05T23:22:34.827Z,7.59
2022-11-05T23:27:41.096Z,7.53
2022-11-05T23:32:44.749Z,7.55
2022-11-05T23:38:06.930Z,7.45
2022-11-05T23:43:29.842Z,7.40
2022-11-05T23:48:36.831Z,7.30
2022-11-05T23:53:41.752Z,7.13
2022-11-05T23:58:45.714Z,6.95
